Time;durP1;ratioP1;P1;durP2;ratioP2;P2;SDS_P1;SDS_P2;PMS_P1;PMS_P2;Temp;Humidity;BMP_temperature;BMP_pressure;BME280_temperature;BME280_humidity;BME280_pressure;Samples;Min_cycle;Max_cycle;Signal;HPM_P1;HPM_P2
2022/05/23 00:02:18;;;;;;;9.80;3.90;;;;;;;7.65;100.00;100712.25;4973406;28;20150;-79
2022/05/23 00:04:46;;;;;;;4.00;3.07;;;;;;;7.66;100.00;100713.13;4974533;28;20046;-79
2022/05/23 00:07:41;;;;;;;4.97;3.30;;;;;;;7.61;100.00;100713.16;4955190;28;20046;-79
2022/05/23 00:10:09;;;;;;;3.97;2.80;;;;;;;7.63;100.00;100704.34;4957243;28;20049;-79
2022/05/23 00:12:36;;;;;;;5.33;3.10;;;;;;;7.61;100.00;100692.97;4971663;28;20664;-79
2022/05/23 00:15:04;;;;;;;4.67;3.23;;;;;;;7.63;100.00;100693.84;4951862;28;20098;-79
2022/05/23 00:17:31;;;;;;;3.93;2.77;;;;;;;7.69;100.00;100700.81;4954870;28;20050;-79
2022/05/23 00:20:00;;;;;;;4.27;3.30;;;;;;;7.58;100.00;100700.91;4957367;28;20142;-79
2022/05/23 00:22:27;;;;;;;5.53;3.20;;;;;;;7.52;100.00;100702.69;4954785;28;20648;-79
2022/05/23 00:24:56;;;;;;;4.80;3.00;;;;;;;7.48;100.00;100709.75;4971077;28;20090;-79
2022/05/23 00:27:26;;;;;;;6.13;2.87;;;;;;;7.42;100.00;100707.16;4951140;28;20051;-79
2022/05/23 00:29:52;;;;;;;4.03;3.00;;;;;;;7.37;100.00;100700.16;4958049;28;20038;-79
2022/05/23 00:35:20;;;;;;;5.47;3.17;;;;;;;7.32;100.00;100702.84;4958833;28;20082;-79
2022/05/23 00:37:55;;;;;;;3.77;3.30;;;;;;;7.29;100.00;100713.34;4932705;29;20067;-79
2022/05/23 00:40:47;;;;;;;4.47;3.23;;;;;;;7.25;100.00;100712.53;4967017;28;20118;-79
2022/05/23 00:43:20;;;;;;;4.47;2.93;;;;;;;7.23;100.00;100710.75;4987044;28;20120;-79
2022/05/23 00:46:01;;;;;;;4.15;3.50;;;;;;;7.26;100.00;100705.50;4976604;28;20047;-81
2022/05/23 00:48:29;;;;;;;4.87;3.20;;;;;;;7.26;100.00;100706.38;4974294;28;20456;-80
2022/05/23 00:50:58;;;;;;;4.13;2.87;;;;;;;7.31;100.00;100703.69;4952407;28;20047;-81
2022/05/23 00:53:29;;;;;;;5.30;3.50;;;;;;;7.26;100.00;100687.97;4970737;28;20039;-80
2022/05/23 00:55:57;;;;;;;7.00;3.57;;;;;;;7.18;100.00;100691.53;4973836;28;20054;-80
2022/05/23 00:58:28;;;;;;;5.40;3.37;;;;;;;7.13;100.00;100698.56;4972528;28;20053;-80
2022/05/23 01:00:58;;;;;;;5.00;3.00;;;;;;;7.05;100.00;100699.47;4957222;28;20571;-80
2022/05/23 01:03:24;;;;;;;4.03;3.20;;;;;;;7.02;100.00;100698.63;4952512;28;20062;-80
2022/05/23 01:05:54;;;;;;;5.27;3.67;;;;;;;7.00;100.00;100697.78;4966771;28;20070;-81
2022/05/23 01:08:21;;;;;;;4.27;3.27;;;;;;;7.00;100.00;100688.13;4972475;28;20641;-80
2022/05/23 01:10:48;;;;;;;4.37;3.23;;;;;;;7.07;100.00;100677.59;5062669;23;20046;-79
2022/05/23 01:13:15;;;;;;;4.73;3.03;;;;;;;7.10;100.00;100670.56;4975040;28;20050;-79
2022/05/23 01:15:48;;;;;;;4.27;3.37;;;;;;;7.14;100.00;100669.66;4977314;28;20050;-80
2022/05/23 01:18:15;;;;;;;5.07;3.10;;;;;;;7.07;100.00;100673.22;4979332;28;20111;-80
2022/05/23 01:20:45;;;;;;;4.40;3.20;;;;;;;6.97;100.00;100674.13;5012725;28;20037;-80
2022/05/23 01:23:39;;;;;;;4.57;2.80;;;;;;;6.89;100.00;100683.81;5012132;28;20184;-79
2022/05/23 01:26:05;;;;;;;4.18;2.80;;;;;;;6.83;100.00;100678.59;4996867;28;20053;-79
2022/05/23 01:28:34;;;;;;;3.80;2.93;;;;;;;6.86;100.00;100678.59;5010185;28;20680;-80
2022/05/23 01:31:00;;;;;;;3.77;3.30;;;;;;;6.87;100.00;100673.31;5010486;28;20042;-79
2022/05/23 01:33:27;;;;;;;5.47;2.93;;;;;;;6.88;100.00;100674.19;5027728;28;20113;-78
2022/05/23 01:35:57;;;;;;;4.53;3.33;;;;;;;6.83;100.00;100665.47;4997121;28;20042;-79
2022/05/23 01:38:24;;;;;;;5.50;3.20;;;;;;;6.78;100.00;100674.22;5022190;28;20049;-79
2022/05/23 01:40:51;;;;;;;4.97;3.03;;;;;;;6.80;100.00;100678.59;4985976;28;20046;-79
2022/05/23 01:43:18;;;;;;;4.90;3.30;;;;;;;6.75;100.00;100674.25;4994707;28;20056;-79
2022/05/23 01:45:44;;;;;;;3.73;2.73;;;;;;;6.70;100.00;100665.53;5008643;28;20046;-79
2022/05/23 01:48:11;;;;;;;4.63;2.83;;;;;;;6.73;100.00;100667.28;5013114;28;20053;-79
2022/05/23 01:50:38;;;;;;;4.10;2.97;;;;;;;6.72;100.00;100655.88;4997972;28;20128;-79
2022/05/23 01:53:05;;;;;;;5.93;3.40;;;;;;;6.75;100.00;100657.63;5011582;28;20052;-79
2022/05/23 01:55:32;;;;;;;4.27;3.00;;;;;;;6.70;100.00;100660.28;5041411;28;20486;-79
2022/05/23 01:57:59;;;;;;;3.53;3.07;;;;;;;6.70;100.00;100657.66;5010408;28;20054;-78
2022/05/23 02:03:11;;;;;;;4.17;3.20;;;;;;;6.64;100.00;100646.28;5026089;28;20038;-79
2022/05/23 02:05:37;;;;;;;5.17;3.13;;;;;;;6.59;100.00;100648.94;4995629;28;20604;-78
2022/05/23 02:08:04;;;;;;;4.60;3.00;;;;;;;6.55;100.00;100652.47;4990722;28;20049;-80
2022/05/23 02:10:31;;;;;;;4.27;3.03;;;;;;;6.56;100.00;100637.56;4996362;28;20045;-79
2022/05/23 02:13:00;;;;;;;5.87;3.50;;;;;;;6.57;100.00;100642.84;5003973;28;20054;-79
2022/05/23 02:15:29;;;;;;;4.67;3.13;;;;;;;6.55;100.00;100643.72;4996240;28;20059;-79
2022/05/23 02:18:00;;;;;;;5.37;3.03;;;;;;;6.47;100.00;100635.88;5008718;28;20042;-79
2022/05/23 02:20:27;;;;;;;4.20;3.20;;;;;;;6.40;100.00;100639.41;5010478;28;20077;-79
2022/05/23 02:22:54;;;;;;;4.70;3.40;;;;;;;6.35;100.00;100636.78;4994220;28;20049;-79
2022/05/23 02:25:22;;;;;;;3.70;3.10;;;;;;;6.35;100.00;100628.06;4980454;28;20042;-79
2022/05/23 02:27:49;;;;;;;5.30;3.07;;;;;;;6.35;100.00;100634.19;5010611;28;20050;-79
2022/05/23 02:30:16;;;;;;;6.60;4.07;;;;;;;6.36;100.00;100629.81;5012634;28;20053;-78
2022/05/23 02:32:45;;;;;;;5.13;3.50;;;;;;;6.38;100.00;100628.03;5010444;28;20138;-80
2022/05/23 02:35:13;;;;;;;4.80;3.50;;;;;;;6.33;100.00;100625.44;5010573;28;20404;-79
2022/05/23 02:37:40;;;;;;;5.03;3.33;;;;;;;6.31;100.00;100632.47;4999753;28;20439;-79
2022/05/23 02:40:07;;;;;;;4.90;3.03;;;;;;;6.31;100.00;100635.09;5008134;28;20039;-79
2022/05/23 02:42:34;;;;;;;5.27;3.57;;;;;;;6.33;100.00;100640.31;4994192;28;20054;-79
2022/05/23 02:45:02;;;;;;;4.30;3.27;;;;;;;6.34;100.00;100644.69;5011464;28;20560;-78
2022/05/23 02:47:28;;;;;;;4.87;3.50;;;;;;;6.32;100.00;100635.94;4985879;28;20054;-80
2022/05/23 02:49:55;;;;;;;7.90;3.40;;;;;;;6.30;100.00;100646.44;5012666;28;20458;-79
2022/05/23 02:52:22;;;;;;;4.40;3.17;;;;;;;6.32;100.00;100654.31;5000443;28;20038;-79
2022/05/23 02:54:48;;;;;;;4.53;3.30;;;;;;;6.31;100.00;100652.56;5012613;28;20092;-79
2022/05/23 02:57:15;;;;;;;4.77;3.17;;;;;;;6.30;100.00;100651.66;5010088;28;20465;-79
2022/05/23 02:59:42;;;;;;;4.67;3.30;;;;;;;6.37;100.00;100642.03;4994522;28;20061;-79
2022/05/23 03:04:54;;;;;;;4.63;3.10;;;;;;;6.31;100.00;100642.94;5039610;28;20056;-81
2022/05/23 03:07:21;;;;;;;4.80;3.47;;;;;;;6.27;100.00;100650.81;5016512;28;20132;-81
2022/05/23 03:09:47;;;;;;;7.03;4.27;;;;;;;6.27;100.00;100650.81;5003978;28;20107;-79
2022/05/23 03:12:14;;;;;;;5.23;3.90;;;;;;;6.23;100.00;100644.72;5018064;28;20079;-79
2022/05/23 03:14:40;;;;;;;6.27;3.80;;;;;;;6.26;100.00;100644.69;5007361;28;20042;-81
2022/05/23 03:17:07;;;;;;;4.60;3.50;;;;;;;6.29;100.00;100638.56;4993706;28;20141;-81
2022/05/23 03:19:38;;;;;;;4.47;3.33;;;;;;;6.31;100.00;100639.47;5014339;28;20038;-81
2022/05/23 03:27:37;;;;;;;4.77;3.07;;;;;;;6.20;100.00;100639.47;5004925;28;20046;-80
2022/05/23 03:30:05;;;;;;;5.27;3.10;;;;;;;6.17;100.00;100635.13;5010420;28;20042;-80
2022/05/23 03:32:32;;;;;;;5.37;4.23;;;;;;;6.24;100.00;100637.72;4989645;28;20035;-79
2022/05/23 03:34:59;;;;;;;5.23;3.20;;;;;;;6.24;100.00;100630.72;5006213;28;20042;-80
2022/05/23 03:37:25;;;;;;;4.73;3.57;;;;;;;6.31;100.00;100624.59;5002360;28;20041;-79
2022/05/23 03:39:52;;;;;;;4.67;3.43;;;;;;;6.40;100.00;100626.31;4987668;28;20283;-80
2022/05/23 03:42:18;;;;;;;4.87;3.63;;;;;;;6.35;100.00;100630.69;4985501;28;20442;-80
2022/05/23 03:44:45;;;;;;;5.10;3.40;;;;;;;6.40;100.00;100629.78;5004971;28;20046;-79
2022/05/23 03:47:12;;;;;;;5.43;3.37;;;;;;;6.35;100.00;100630.69;5006993;28;20038;-79
2022/05/23 03:49:38;;;;;;;4.53;3.23;;;;;;;6.34;100.00;100632.44;5001004;28;20092;-79
2022/05/23 03:52:05;;;;;;;3.33;3.03;;;;;;;6.34;100.00;100636.81;5006593;28;20045;-79
2022/05/23 03:54:32;;;;;;;5.63;3.73;;;;;;;6.40;100.00;100626.31;4999795;28;20048;-79
2022/05/23 03:57:00;;;;;;;4.97;3.47;;;;;;;6.40;100.00;100629.78;4998812;28;20045;-78
2022/05/23 03:59:28;;;;;;;5.43;3.50;;;;;;;6.42;100.00;100632.41;5006853;28;20038;-79
2022/05/23 04:01:56;;;;;;;4.60;3.10;;;;;;;6.45;100.00;100637.63;4990417;28;20392;-79
2022/05/23 04:04:24;;;;;;;4.43;3.27;;;;;;;6.50;100.00;100641.13;5007558;28;20044;-79
2022/05/23 04:06:50;;;;;;;6.43;3.97;;;;;;;6.53;100.00;100629.72;4989060;28;20874;-79
2022/05/23 04:09:17;;;;;;;6.00;3.40;;;;;;;6.54;100.00;100636.72;4990521;28;20061;-80
2022/05/23 04:11:45;;;;;;;5.07;3.67;;;;;;;6.57;100.00;100640.22;5008874;28;20076;-79
2022/05/23 04:14:11;;;;;;;4.40;3.30;;;;;;;6.64;100.00;100635.78;4991155;28;20481;-80
2022/05/23 04:16:38;;;;;;;6.27;4.13;;;;;;;6.74;100.00;100634.88;5007897;28;20045;-79
2022/05/23 04:19:06;;;;;;;5.20;3.30;;;;;;;6.81;100.00;100636.59;4999104;28;20465;-80
2022/05/23 04:21:33;;;;;;;6.07;3.60;;;;;;;6.80;100.00;100636.59;4988350;28;20033;-80
2022/05/23 04:23:59;;;;;;;5.03;3.80;;;;;;;6.86;100.00;100628.69;4990569;28;20046;-79
2022/05/23 04:26:26;;;;;;;4.83;3.20;;;;;;;6.91;100.00;100630.41;4992305;28;20043;-79
2022/05/23 04:28:53;;;;;;;4.63;3.60;;;;;;;6.94;100.00;100634.75;5004107;28;20081;-80
2022/05/23 04:31:19;;;;;;;4.07;3.00;;;;;;;6.96;100.00;100630.38;5010855;28;20088;-79
2022/05/23 04:36:31;;;;;;;4.80;3.77;;;;;;;7.13;100.00;100635.50;5012355;28;20049;-80
2022/05/23 04:38:58;;;;;;;5.43;4.17;;;;;;;7.22;100.00;100628.44;4989870;28;20077;-79
2022/05/23 04:41:25;;;;;;;5.67;3.30;;;;;;;7.36;100.00;100635.34;5022481;28;20034;-80
2022/05/23 04:43:57;;;;;;;5.20;3.60;;;;;;;7.37;100.00;100634.47;5025526;28;20049;-79
2022/05/23 04:46:24;;;;;;;4.70;3.67;;;;;;;7.41;100.00;100639.69;4979040;28;20042;-79
2022/05/23 04:51:36;;;;;;;5.97;4.07;;;;;;;7.56;100.00;100638.69;5009534;28;20408;-79
2022/05/23 04:54:03;;;;;;;8.23;3.77;;;;;;;7.66;100.00;100639.50;4987128;28;20426;-80
2022/05/23 04:56:30;;;;;;;6.03;3.63;;;;;;;7.75;100.00;100634.16;4996107;28;20042;-79
2022/05/23 04:58:57;;;;;;;6.07;4.50;;;;;;;7.95;100.00;100618.16;5010050;28;20049;-79
2022/05/23 05:01:24;;;;;;;6.17;4.40;;;;;;;8.04;100.00;100624.19;5023097;28;20038;-79
2022/05/23 05:03:53;;;;;;;6.87;4.30;;;;;;;8.29;100.00;100616.91;5008810;28;20254;-79
2022/05/23 05:06:21;;;;;;;6.87;3.60;;;;;;;8.57;100.00;100616.56;4994257;28;20042;-79
2022/05/23 05:08:49;;;;;;;4.73;3.90;;;;;;;8.74;100.00;100604.06;5018994;28;20046;-79
2022/05/23 05:11:15;;;;;;;4.63;3.38;;;;;;;8.97;100.00;100603.72;5007983;28;20383;-81
2022/05/23 05:13:43;;;;;;;5.38;2.88;;;;;;;9.00;100.00;100604.56;5026024;28;20443;-80
2022/05/23 05:16:10;;;;;;;8.48;4.07;;;;;;;9.11;100.00;100598.28;5010986;28;20041;-79
2022/05/23 05:18:37;;;;;;;5.53;4.25;;;;;;;9.23;100.00;100600.69;5006834;28;20038;-79
2022/05/23 05:21:09;;;;;;;5.20;3.50;;;;;;;9.31;100.00;100604.94;4991857;28;20046;-79
2022/05/23 05:23:37;;;;;;;4.97;3.05;;;;;;;9.51;100.00;100596.72;4982126;28;20062;-80
2022/05/23 05:26:05;;;;;;;6.15;3.63;;;;;;;9.99;100.00;100596.72;5003462;28;20054;-79
2022/05/23 05:28:33;;;;;;;7.53;3.30;;;;;;;10.41;100.00;100599.44;5002265;28;20388;-79
2022/05/23 05:31:02;;;;;;;3.78;3.00;;;;;;;10.47;100.00;100598.44;4994129;28;20041;-80
2022/05/23 05:33:33;;;;;;;5.90;3.15;;;;;;;10.47;100.00;100593.16;5005142;28;20085;-80
2022/05/23 05:36:04;;;;;;;4.22;3.10;;;;;;;10.49;100.00;100594.00;5009881;28;20046;-80
2022/05/23 05:38:34;;;;;;;5.38;3.63;;;;;;;10.55;100.00;100586.81;5009873;28;20399;-80
2022/05/23 05:41:04;;;;;;;4.68;3.50;;;;;;;10.75;100.00;100580.22;4994148;28;20045;-80
2022/05/23 05:43:39;;;;;;;4.70;3.60;;;;;;;10.88;100.00;100569.34;4989182;28;20037;-80
2022/05/23 05:46:13;;;;;;;4.63;3.10;;;;;;;11.05;100.00;100576.00;5006782;28;20050;-80
2022/05/23 05:48:41;;;;;;;5.10;3.05;;;;;;;11.30;100.00;100569.22;4988339;28;20137;-79
2022/05/23 05:51:09;;;;;;;3.85;2.97;;;;;;;11.67;100.00;100565.63;5011066;28;20418;-79
2022/05/23 05:53:36;;;;;;;3.20;2.90;;;;;;;11.93;100.00;100555.22;5009127;28;20054;-80
2022/05/23 05:56:04;;;;;;;3.75;2.60;;;;;;;12.15;100.00;100557.28;5012729;28;20088;-80
2022/05/23 05:58:31;;;;;;;4.60;3.03;;;;;;;12.72;100.00;100564.44;5011461;28;20049;-79
2022/05/23 06:00:58;;;;;;;4.88;3.03;;;;;;;14.40;96.94;100556.91;4980589;28;20447;-80
2022/05/23 06:03:25;;;;;;;3.28;2.58;;;;;;;16.00;81.94;100546.81;5009896;28;20072;-80
2022/05/23 06:11:26;;;;;;;3.70;2.20;;;;;;;17.18;71.02;100550.16;5011139;28;20126;-80
2022/05/23 06:14:01;;;;;;;5.93;2.28;;;;;;;16.85;70.54;100541.97;5008470;28;20129;-80
2022/05/23 06:16:30;;;;;;;3.60;2.40;;;;;;;17.03;68.28;100532.22;4987626;28;20041;-83
2022/05/23 06:18:57;;;;;;;3.60;2.08;;;;;;;17.05;71.03;100539.19;5011417;28;20430;-80
2022/05/23 06:21:24;;;;;;;3.22;2.10;;;;;;;17.10;67.52;100537.19;4996502;28;20046;-81
2022/05/23 06:23:51;;;;;;;3.75;2.08;;;;;;;17.13;68.13;100531.66;4996250;28;20096;-80
2022/05/23 06:26:21;;;;;;;3.67;2.17;;;;;;;17.45;67.65;100532.72;5011182;28;20459;-81
2022/05/23 06:28:49;;;;;;;2.90;2.00;;;;;;;18.28;68.60;100523.91;5002815;28;20133;-80
2022/05/23 06:31:16;;;;;;;2.70;2.17;;;;;;;18.42;66.45;100522.31;5011686;28;20046;-81
2022/05/23 06:33:43;;;;;;;2.65;2.38;;;;;;;18.31;63.61;100525.56;5012175;28;20054;-79
2022/05/23 06:36:11;;;;;;;2.65;2.35;;;;;;;18.65;64.04;100516.56;5013708;28;20463;-81
2022/05/23 06:38:38;;;;;;;4.07;2.20;;;;;;;18.62;63.48;100522.06;5012115;28;20396;-80
2022/05/23 06:41:06;;;;;;;2.92;1.80;;;;;;;18.75;62.70;100523.16;5011899;28;20559;-80
2022/05/23 06:43:33;;;;;;;3.58;2.08;;;;;;;18.17;59.02;100517.44;4987165;28;20042;-78
2022/05/23 06:46:02;;;;;;;2.90;2.13;;;;;;;18.48;61.04;100513.94;5018763;28;20045;-79
2022/05/23 06:48:30;;;;;;;2.65;2.10;;;;;;;18.57;59.27;100506.25;5028287;28;20042;-81
2022/05/23 06:50:57;;;;;;;3.38;1.60;;;;;;;18.88;59.29;100501.88;4996257;28;20438;-80
2022/05/23 06:53:24;;;;;;;4.05;2.10;;;;;;;18.62;58.52;100491.75;4995282;28;20046;-80
2022/05/23 06:55:51;;;;;;;2.45;1.90;;;;;;;18.97;57.79;100485.28;5021529;28;20100;-80
2022/05/23 06:58:20;;;;;;;2.83;1.80;;;;;;;19.13;57.21;100479.91;5011411;28;20461;-79
2022/05/23 07:00:48;;;;;;;2.42;1.65;;;;;;;18.75;57.63;100488.34;5009072;28;20069;-79
2022/05/23 07:03:16;;;;;;;3.30;2.08;;;;;;;19.11;57.32;100482.69;4998115;28;20406;-80
2022/05/23 07:14:02;;;;;;;2.45;1.50;;;;;;;19.91;58.50;100473.38;5023301;28;20041;-80
2022/05/23 07:16:30;;;;;;;2.75;1.80;;;;;;;20.36;53.96;100474.13;5009503;28;20042;-79
2022/05/23 07:18:57;;;;;;;4.07;1.70;;;;;;;20.53;52.19;100475.78;5010298;28;20067;-79
2022/05/23 07:21:27;;;;;;;3.08;1.60;;;;;;;20.24;50.66;100466.84;5025015;28;20454;-80
2022/05/23 07:23:55;;;;;;;9.95;2.28;;;;;;;20.44;48.21;100471.84;4976355;28;20045;-79
2022/05/23 07:26:21;;;;;;;8.38;2.55;;;;;;;20.77;50.33;100460.75;5007638;28;20107;-78
2022/05/23 07:31:36;;;;;;;1.80;1.35;;;;;;;20.58;43.62;100452.16;5027281;28;20052;-79
2022/05/23 07:34:03;;;;;;;2.63;1.65;;;;;;;20.29;49.41;100448.66;5027572;28;20047;-79
2022/05/23 07:36:30;;;;;;;2.13;1.25;;;;;;;20.30;46.25;100453.06;5024815;28;20041;-80
2022/05/23 07:38:56;;;;;;;1.65;1.17;;;;;;;20.50;44.98;100435.69;5027590;28;20045;-80
2022/05/23 07:41:23;;;;;;;2.28;1.48;;;;;;;20.83;45.04;100431.75;5028813;28;20437;-80
2022/05/23 07:43:50;;;;;;;1.40;1.10;;;;;;;20.83;41.66;100432.59;5012099;28;20413;-79
2022/05/23 07:46:17;;;;;;;17.95;3.85;;;;;;;21.14;41.75;100436.78;5029399;28;20471;-79
2022/05/23 07:48:47;;;;;;;1.55;1.00;;;;;;;21.49;43.11;100430.84;5011879;28;20136;-79
2022/05/23 07:51:17;;;;;;;3.70;1.30;;;;;;;21.77;41.57;100425.25;5009524;28;20041;-80
2022/05/23 08:02:00;;;;;;;1.75;1.40;;;;;;;21.45;38.83;100405.16;5027535;28;20399;-80
2022/05/23 08:04:27;;;;;;;2.42;1.10;;;;;;;21.92;39.04;100402.63;5025414;28;20399;-79
2022/05/23 08:06:54;;;;;;;1.38;1.27;;;;;;;22.01;40.23;100400.25;5029868;28;20065;-80
2022/05/23 08:09:21;;;;;;;1.85;1.27;;;;;;;22.25;38.87;100398.53;5028059;28;20048;-79
2022/05/23 08:11:50;;;;;;;2.47;1.23;;;;;;;22.10;37.86;100394.25;5029363;28;20041;-79
2022/05/23 08:14:17;;;;;;;2.22;1.70;;;;;;;22.53;39.63;100389.25;5027855;28;20513;-79
2022/05/23 08:16:44;;;;;;;3.90;1.50;;;;;;;22.44;39.57;100387.25;5012629;28;20648;-79
2022/05/23 08:19:11;;;;;;;2.35;1.30;;;;;;;22.01;39.67;100381.44;5027733;28;20068;-80
2022/05/23 08:21:42;;;;;;;2.78;1.90;;;;;;;22.58;40.24;100380.84;5001780;28;20095;-79
2022/05/23 08:24:09;;;;;;;3.83;1.38;;;;;;;22.98;39.45;100376.88;5019286;28;20491;-79
2022/05/23 08:26:36;;;;;;;2.70;1.65;;;;;;;22.87;37.06;100373.28;5028044;28;20033;-80
2022/05/23 08:29:03;;;;;;;1.60;1.27;;;;;;;23.22;37.04;100373.28;5007311;28;20461;-79
2022/05/23 08:31:29;;;;;;;1.65;1.25;;;;;;;23.47;36.74;100373.09;5012330;28;20045;-80
2022/05/23 08:33:56;;;;;;;2.65;1.27;;;;;;;23.07;35.11;100379.84;5043729;28;20041;-80
2022/05/23 08:36:23;;;;;;;1.33;1.13;;;;;;;23.02;33.60;100372.97;5037949;28;20041;-80
2022/05/23 08:38:49;;;;;;;3.85;1.02;;;;;;;23.08;30.82;100376.19;5033587;28;20044;-80
2022/05/23 08:41:16;;;;;;;2.20;1.10;;;;;;;22.84;33.36;100363.56;5025739;28;20512;-79
2022/05/23 08:44:08;;;;;;;1.75;1.20;;;;;;;22.75;33.40;100381.28;5027945;28;20045;-80
2022/05/23 08:46:52;;;;;;;2.30;1.20;;;;;;;22.97;32.51;100367.09;5027596;28;20041;-79
2022/05/23 08:49:25;;;;;;;;;;;;;;;23.03;32.19;100360.34;5009076;28;20052;-80
2022/05/23 08:52:36;;;;;;;1.80;1.08;;;;;;;23.03;29.08;100355.81;5029870;28;20301;-80
2022/05/23 08:55:09;;;;;;;1.27;1.17;;;;;;;22.67;28.37;100356.78;5008592;28;20063;-80
2022/05/23 08:58:04;;;;;;;1.20;1.00;;;;;;;23.12;31.36;100361.47;5011658;28;20045;-79
2022/05/23 09:00:35;;;;;;;1.20;1.00;;;;;;;22.75;31.17;100356.19;5028791;28;20096;-79
2022/05/23 09:03:21;;;;;;;1.70;1.00;;;;;;;23.28;30.43;100359.31;5008749;28;20033;-79
2022/05/23 09:06:15;;;;;;;0.98;0.90;;;;;;;23.07;27.07;100352.91;5041906;28;20045;-79
2022/05/23 09:08:52;;;;;;;;;;;;;;;22.95;28.34;100342.13;5025132;28;20045;-81
2022/05/23 09:11:30;;;;;;;1.27;1.00;;;;;;;23.25;30.48;100340.69;5031202;28;19925;-79
2022/05/23 09:13:58;;;;;;;3.13;1.00;;;;;;;23.27;27.67;100341.41;4999403;28;20073;-80
2022/05/23 09:16:31;;;;;;;0.98;0.88;;;;;;;22.97;26.20;100336.59;5017773;28;20045;-80
2022/05/23 09:19:02;;;;;;;;;;;;;;;22.78;22.37;100337.09;5016046;28;20045;-80
2022/05/23 09:24:16;;;;;;;1.80;0.95;;;;;;;22.74;23.91;100325.72;5023987;28;20501;-79
2022/05/23 09:26:44;;;;;;;0.85;0.80;;;;;;;23.24;24.91;100325.50;5017232;28;20045;-80
2022/05/23 09:29:11;;;;;;;1.85;0.93;;;;;;;23.78;21.49;100332.88;5019410;28;20072;-80
2022/05/23 09:32:12;;;;;;;0.98;0.88;;;;;;;24.03;24.17;100324.53;5030145;28;20473;-80
2022/05/23 09:34:50;;;;;;;1.40;0.90;;;;;;;23.35;23.33;100325.50;5033102;28;20049;-80
2022/05/23 09:37:23;;;;;;;0.70;0.68;;;;;;;23.29;23.00;100318.78;5013047;28;20045;-80
2022/05/23 09:39:55;;;;;;;0.88;0.88;;;;;;;23.67;24.44;100322.13;5049191;28;20041;-80
2022/05/23 09:48:20;;;;;;;1.17;0.85;;;;;;;23.19;22.86;100288.13;5044979;28;20040;-79
2022/05/23 09:51:05;;;;;;;1.83;0.90;;;;;;;23.86;23.60;100279.16;5020248;28;20084;-80
2022/05/23 09:53:47;;;;;;;1.42;1.10;;;;;;;24.14;22.55;100278.63;5038291;28;20041;-80
2022/05/23 09:56:35;;;;;;;1.42;1.10;;;;;;;24.65;25.00;100277.09;5028576;28;20042;-79
2022/05/23 09:59:07;;;;;;;1.30;1.00;;;;;;;24.65;23.95;100274.41;5030500;28;20049;-80
2022/05/23 10:01:34;;;;;;;1.25;1.10;;;;;;;24.16;23.84;100262.31;5015566;28;20050;-80
2022/05/23 10:04:01;;;;;;;1.88;1.00;;;;;;;23.97;24.13;100281.00;5021584;28;20037;-80
2022/05/23 10:06:40;;;;;;;1.63;1.05;;;;;;;23.89;24.38;100273.53;5035473;28;20041;-79
2022/05/23 10:09:08;;;;;;;3.35;1.70;;;;;;;23.39;27.15;100278.47;5010977;28;20052;-80
2022/05/23 10:11:37;;;;;;;1.77;1.17;;;;;;;23.37;28.50;100264.22;5014835;28;20033;-81
2022/05/23 10:14:08;;;;;;;2.55;1.60;;;;;;;23.87;28.76;100260.16;5030559;28;20041;-80
2022/05/23 10:16:47;;;;;;;1.58;1.30;;;;;;;23.96;26.67;100268.47;5016447;28;20111;-79
2022/05/23 10:19:32;;;;;;;1.55;1.10;;;;;;;23.53;26.33;100255.78;5016138;28;20514;-79
2022/05/23 10:22:15;;;;;;;2.75;1.30;;;;;;;24.02;27.66;100265.28;5002724;28;20050;-80
2022/05/23 10:24:48;;;;;;;2.42;1.10;;;;;;;23.93;26.79;100255.25;5002570;28;20410;-80
2022/05/23 10:27:19;;;;;;;2.88;1.23;;;;;;;24.28;27.12;100261.25;5018129;28;20072;-80
2022/05/23 10:29:55;;;;;;;1.60;1.30;;;;;;;24.33;27.27;100242.88;5033023;28;20041;-80
2022/05/23 10:32:41;;;;;;;1.20;1.10;;;;;;;24.08;28.42;100243.19;5014216;28;20061;-80
2022/05/23 10:35:22;;;;;;;1.90;1.25;;;;;;;23.91;27.66;100241.88;5035468;28;20091;-81
2022/05/23 10:37:51;;;;;;;1.73;1.20;;;;;;;24.13;28.24;100224.75;5034427;28;20048;-79
2022/05/23 10:43:20;;;;;;;1.33;1.23;;;;;;;24.45;29.45;100218.50;5016368;28;20117;-79
2022/05/23 10:46:00;;;;;;;1.30;1.03;;;;;;;24.31;29.26;100217.81;5015174;28;20422;-81
2022/05/23 10:48:39;;;;;;;1.83;1.40;;;;;;;24.60;29.22;100217.19;5013667;28;20048;-80
2022/05/23 10:51:36;;;;;;;2.60;1.58;;;;;;;24.25;29.47;100217.47;5030221;28;20050;-81
2022/05/23 10:54:13;;;;;;;1.25;1.15;;;;;;;24.18;29.04;100216.28;5013054;28;20119;-80
2022/05/23 10:56:57;;;;;;;2.38;1.58;;;;;;;24.54;28.17;100223.13;5008235;28;20095;-81
2022/05/23 10:59:46;;;;;;;3.80;1.33;;;;;;;24.84;29.44;100216.94;5017246;28;20037;-81
2022/05/23 11:02:33;;;;;;;2.08;1.25;;;;;;;25.21;28.47;100199.22;5030234;28;20069;-80
2022/05/23 11:05:08;;;;;;;2.38;1.20;;;;;;;25.14;28.69;100194.47;5010109;28;20045;-80
2022/05/23 11:08:00;;;;;;;2.70;1.83;;;;;;;25.29;29.12;100203.94;5029307;28;20205;-80
2022/05/23 11:10:36;;;;;;;1.48;1.38;;;;;;;24.36;29.50;100193.16;5030419;28;20560;-80
2022/05/23 11:13:35;;;;;;;3.17;1.50;;;;;;;24.69;28.57;100189.41;5029788;28;20068;-80
2022/05/23 11:16:06;;;;;;;1.77;1.65;;;;;;;24.69;28.16;100194.78;5014628;28;20103;-80
2022/05/23 11:18:54;;;;;;;2.13;1.58;;;;;;;24.88;28.65;100177.81;5001382;28;20075;-80
2022/05/23 11:21:44;;;;;;;1.83;1.45;;;;;;;24.77;29.28;100173.38;5013764;28;20526;-81
2022/05/23 11:24:15;;;;;;;1.75;1.42;;;;;;;24.35;30.60;100175.25;5016618;28;20059;-80
2022/05/23 11:26:45;;;;;;;1.95;1.60;;;;;;;24.93;30.17;100159.38;5014952;28;20045;-80
2022/05/23 11:34:54;;;;;;;2.63;1.77;;;;;;;24.73;30.87;100157.59;4997750;28;20046;-81
2022/05/23 11:39:52;;;;;;;4.07;1.50;;;;;;;24.66;29.25;100154.56;5011538;28;20042;-81
2022/05/23 11:42:19;;;;;;;2.78;1.60;;;;;;;23.94;30.35;100141.78;4992985;28;20046;-81
2022/05/23 11:44:54;;;;;;;2.50;1.63;;;;;;;24.24;29.91;100142.88;5025859;28;20040;-80
2022/05/23 11:47:29;;;;;;;1.70;1.42;;;;;;;23.69;29.92;100142.13;5012022;28;20041;-81
2022/05/23 11:50:14;;;;;;;2.20;1.30;;;;;;;23.28;30.81;100138.28;5014275;28;20047;-81
2022/05/23 11:52:49;;;;;;;1.40;1.30;;;;;;;23.48;31.07;100124.03;5029843;28;20037;-81
2022/05/23 11:55:50;;;;;;;3.42;1.90;;;;;;;23.97;30.99;100125.38;5011006;28;20038;-81
2022/05/23 11:58:47;;;;;;;2.72;1.40;;;;;;;23.86;30.54;100120.00;5021491;28;20029;-81
2022/05/23 12:01:14;;;;;;;2.67;1.55;;;;;;;23.78;30.79;100114.41;5026920;28;20056;-81
2022/05/23 12:03:49;;;;;;;4.00;1.85;;;;;;;23.84;31.32;100108.50;5027076;28;20045;-81
2022/05/23 12:06:22;;;;;;;2.10;1.48;;;;;;;24.45;29.71;100097.84;5026602;28;20042;-81
2022/05/23 12:09:01;;;;;;;1.50;1.30;;;;;;;24.71;30.75;100096.41;5029529;28;20495;-81
2022/05/23 12:11:32;;;;;;;6.60;1.88;;;;;;;24.73;29.49;100085.50;5012995;28;20041;-83
2022/05/23 12:14:19;;;;;;;2.70;1.33;;;;;;;24.58;28.91;100090.41;4992249;28;20042;-82
2022/05/23 12:16:55;;;;;;;2.28;1.50;;;;;;;24.17;28.27;100077.78;5022490;28;20049;-81
2022/05/23 12:19:48;;;;;;;1.60;1.50;;;;;;;24.08;29.18;100073.16;5025188;28;20039;-82
2022/05/23 12:22:18;;;;;;;3.30;1.67;;;;;;;24.11;29.10;100075.59;5031729;28;20635;-81
2022/05/23 12:25:01;;;;;;;1.42;1.10;;;;;;;24.46;29.20;100067.16;5049588;28;20033;-81
2022/05/23 12:27:35;;;;;;;1.85;1.30;;;;;;;23.74;29.03;100081.44;5048369;28;20135;-82
2022/05/23 12:30:17;;;;;;;1.65;1.50;;;;;;;23.81;29.73;100068.31;5001949;28;20050;-81
2022/05/23 12:32:55;;;;;;;1.50;1.40;;;;;;;23.75;28.83;100055.31;5011898;28;20037;-81
2022/05/23 12:35:38;;;;;;;1.92;1.20;;;;;;;23.79;29.55;100070.25;5013344;28;20413;-81
2022/05/23 12:38:18;;;;;;;2.25;1.42;;;;;;;24.21;31.25;100062.16;5028596;28;20056;-81
2022/05/23 12:40:58;;;;;;;3.45;1.58;;;;;;;24.21;30.44;100043.25;5016928;28;20072;-81
2022/05/23 12:43:38;;;;;;;1.50;1.20;;;;;;;24.61;29.53;100051.44;5015718;28;20502;-81
2022/05/23 12:46:11;;;;;;;1.98;1.50;;;;;;;24.82;28.77;100046.00;5017111;28;20056;-81
2022/05/23 12:48:59;;;;;;;2.35;1.20;;;;;;;24.70;27.99;100050.63;5033715;28;20490;-82
2022/05/23 12:51:33;;;;;;;2.47;1.40;;;;;;;24.52;29.56;100041.47;5032927;28;20052;-81